Time;durP1;ratioP1;P1;durP2;ratioP2;P2;SDS_P1;SDS_P2;PMS_P1;PMS_P2;Temp;Humidity;BMP_temperature;BMP_pressure;BME280_temperature;BME280_humidity;BME280_pressure;Samples;Min_cycle;Max_cycle;Signal;HPM_P1;HPM_P2
2023/08/11 00:00:28;;;;;;;5.47;1.45;;;;;;;;;;4372282;32;316718;-81
2023/08/11 00:02:57;;;;;;;4.28;1.80;;;;;;;;;;4348748;32;317211;-81
2023/08/11 00:05:24;;;;;;;3.53;1.67;;;;;;;;;;4355156;32;316794;-81
2023/08/11 00:07:54;;;;;;;3.87;1.98;;;;;;;;;;4350935;32;317587;-81
2023/08/11 00:10:21;;;;;;;5.90;1.40;;;;;;;;;;4369567;32;316767;-81
2023/08/11 00:12:48;;;;;;;2.72;1.10;;;;;;;;;;4369887;32;317264;-81
2023/08/11 00:15:15;;;;;;;7.10;2.08;;;;;;;;;;4345513;32;317331;-80
2023/08/11 00:17:43;;;;;;;2.08;1.60;;;;;;;;;;4372654;32;317427;-81
2023/08/11 00:20:12;;;;;;;5.40;1.40;;;;;;;;;;4371989;32;317540;-81
2023/08/11 00:22:39;;;;;;;4.25;1.65;;;;;;;;;;4383791;32;317280;-81
2023/08/11 00:25:08;;;;;;;3.12;2.03;;;;;;;;;;4373554;32;317458;-80
2023/08/11 00:27:34;;;;;;;6.25;1.55;;;;;;;;;;4383367;32;316772;-81
2023/08/11 00:30:01;;;;;;;4.53;1.83;;;;;;;;;;4374899;32;320654;-81
2023/08/11 00:32:28;;;;;;;4.70;1.40;;;;;;;;;;4386364;32;316588;-80
2023/08/11 00:34:55;;;;;;;4.60;1.75;;;;;;;;;;4377140;32;316467;-80
2023/08/11 00:37:22;;;;;;;6.82;1.52;;;;;;;;;;4384794;32;317423;-81
2023/08/11 00:39:51;;;;;;;3.78;1.70;;;;;;;;;;4383927;32;316601;-80
2023/08/11 00:42:20;;;;;;;2.53;1.37;;;;;;;;;;4371763;32;417822;-82
2023/08/11 00:44:48;;;;;;;2.17;1.50;;;;;;;;;;4384471;32;317569;-81
2023/08/11 00:47:16;;;;;;;2.33;1.73;;;;;;;;;;4372166;32;333403;-81
2023/08/11 00:49:43;;;;;;;7.40;1.42;;;;;;;;;;4384625;32;316470;-80
2023/08/11 00:52:11;;;;;;;3.58;1.48;;;;;;;;;;4374683;32;317057;-81
2023/08/11 00:54:38;;;;;;;2.37;1.40;;;;;;;;;;4383687;32;316373;-81
2023/08/11 00:57:05;;;;;;;4.03;1.20;;;;;;;;;;4374001;32;317091;-80
2023/08/11 00:59:33;;;;;;;1.70;1.60;;;;;;;;;;4382566;32;317393;-80
2023/08/11 01:02:00;;;;;;;1.95;1.55;;;;;;;;;;4380441;32;317089;-80
2023/08/11 01:04:27;;;;;;;1.23;1.10;;;;;;;;;;4371107;32;316287;-80
2023/08/11 01:07:04;;;;;;;2.37;1.60;;;;;;;;;;4373586;32;317233;-81
2023/08/11 01:09:36;;;;;;;6.65;2.00;;;;;;;;;;4383872;32;316628;-81
2023/08/11 01:12:14;;;;;;;4.57;1.60;;;;;;;;;;4374251;32;317247;-81
2023/08/11 01:14:54;;;;;;;1.83;1.35;;;;;;;;;;4383068;32;317446;-80
2023/08/11 01:17:22;;;;;;;5.87;2.17;;;;;;;;;;4374263;32;415846;-81
2023/08/11 01:19:49;;;;;;;4.00;1.83;;;;;;;;;;4380344;32;316352;-80
2023/08/11 01:22:19;;;;;;;1.42;1.25;;;;;;;;;;4368498;32;415864;-82
2023/08/11 01:24:49;;;;;;;2.42;1.35;;;;;;;;;;4388583;32;353769;-81
2023/08/11 01:27:16;;;;;;;1.90;1.45;;;;;;;;;;4376294;32;416504;-81
2023/08/11 01:29:42;;;;;;;2.00;1.48;;;;;;;;;;4382901;32;316607;-80
2023/08/11 01:32:10;;;;;;;4.43;1.37;;;;;;;;;;4371515;32;322013;-80
2023/08/11 01:34:37;;;;;;;2.75;1.85;;;;;;;;;;4382846;32;317289;-80
2023/08/11 01:37:05;;;;;;;7.83;1.93;;;;;;;;;;4370741;32;316558;-81
2023/08/11 01:39:33;;;;;;;7.28;1.60;;;;;;;;;;4382296;32;316433;-81
2023/08/11 01:42:05;;;;;;;2.00;1.55;;;;;;;;;;4372033;32;335687;-80
2023/08/11 01:44:33;;;;;;;15.05;1.60;;;;;;;;;;4383541;32;317406;-81
2023/08/11 01:47:01;;;;;;;2.55;1.50;;;;;;;;;;4373588;32;317752;-79
2023/08/11 01:49:28;;;;;;;4.43;1.40;;;;;;;;;;4382579;32;316658;-80
2023/08/11 01:51:55;;;;;;;5.37;1.15;;;;;;;;;;4372822;32;317565;-80
2023/08/11 01:54:23;;;;;;;2.90;1.65;;;;;;;;;;4382936;32;317403;-81
2023/08/11 01:56:51;;;;;;;2.55;1.33;;;;;;;;;;4381873;32;317342;-80
2023/08/11 01:59:19;;;;;;;2.33;1.40;;;;;;;;;;4369189;32;416452;-81
2023/08/11 02:01:46;;;;;;;5.15;1.25;;;;;;;;;;4383251;32;318046;-81
2023/08/11 02:04:13;;;;;;;7.75;1.20;;;;;;;;;;4373731;32;317174;-80
2023/08/11 02:06:40;;;;;;;5.32;1.73;;;;;;;;;;4383287;32;316809;-81
2023/08/11 02:09:08;;;;;;;5.47;1.92;;;;;;;;;;4372802;32;317250;-80
2023/08/11 02:11:37;;;;;;;3.92;1.50;;;;;;;;;;4383186;32;317513;-81
2023/08/11 02:14:04;;;;;;;2.17;1.00;;;;;;;;;;4371917;32;317546;-82
2023/08/11 02:16:33;;;;;;;1.35;1.15;;;;;;;;;;4383429;32;317158;-82
2023/08/11 02:19:00;;;;;;;1.52;1.35;;;;;;;;;;4372121;32;316600;-82
2023/08/11 02:21:28;;;;;;;5.05;1.42;;;;;;;;;;4382038;32;317207;-82
2023/08/11 02:23:55;;;;;;;3.07;1.40;;;;;;;;;;4361673;32;316608;-82
2023/08/11 02:26:25;;;;;;;3.20;1.55;;;;;;;;;;4382298;32;317373;-80
2023/08/11 02:28:52;;;;;;;3.33;1.50;;;;;;;;;;4364009;32;317349;-81
2023/08/11 02:31:19;;;;;;;5.37;1.40;;;;;;;;;;4380351;32;317155;-80
2023/08/11 02:33:47;;;;;;;1.40;1.05;;;;;;;;;;4373146;32;317303;-80
2023/08/11 02:36:15;;;;;;;1.67;1.17;;;;;;;;;;4382649;32;317460;-81
2023/08/11 02:38:41;;;;;;;2.30;1.33;;;;;;;;;;4381718;32;317177;-81
2023/08/11 02:41:08;;;;;;;1.65;1.30;;;;;;;;;;4372982;32;317542;-81
2023/08/11 02:43:36;;;;;;;1.55;1.17;;;;;;;;;;4382957;32;316817;-81
2023/08/11 02:46:04;;;;;;;1.90;1.23;;;;;;;;;;4372856;32;316779;-81
2023/08/11 02:48:31;;;;;;;6.03;1.37;;;;;;;;;;4381803;32;317852;-81
2023/08/11 02:50:59;;;;;;;5.47;1.55;;;;;;;;;;4372269;32;317570;-81
2023/08/11 02:53:26;;;;;;;1.80;1.25;;;;;;;;;;4382639;32;316621;-81
2023/08/11 02:55:53;;;;;;;5.87;1.83;;;;;;;;;;4377095;32;317899;-81
2023/08/11 02:58:20;;;;;;;1.92;1.70;;;;;;;;;;4380086;32;316569;-81
2023/08/11 03:00:49;;;;;;;2.92;1.77;;;;;;;;;;4371593;32;316693;-80
2023/08/11 03:03:16;;;;;;;2.28;1.40;;;;;;;;;;4382993;32;316771;-81
2023/08/11 03:05:45;;;;;;;2.15;1.30;;;;;;;;;;4372873;32;317230;-81
2023/08/11 03:08:13;;;;;;;3.40;1.50;;;;;;;;;;4369382;32;415882;-81
2023/08/11 03:10:42;;;;;;;8.07;2.28;;;;;;;;;;4382805;32;317213;-81
2023/08/11 03:13:09;;;;;;;4.10;1.87;;;;;;;;;;4370114;32;416185;-80
2023/08/11 03:15:35;;;;;;;4.20;2.05;;;;;;;;;;4373709;32;316724;-81
2023/08/11 03:18:03;;;;;;;3.17;2.10;;;;;;;;;;4371363;32;317275;-81
2023/08/11 03:20:30;;;;;;;6.30;3.03;;;;;;;;;;4383300;32;317259;-80
2023/08/11 03:22:56;;;;;;;3.62;2.40;;;;;;;;;;4371151;32;317350;-81
2023/08/11 03:25:26;;;;;;;5.60;2.25;;;;;;;;;;4383416;32;316594;-81
2023/08/11 03:27:53;;;;;;;6.30;2.00;;;;;;;;;;4374758;32;317415;-82
2023/08/11 03:30:19;;;;;;;10.23;1.90;;;;;;;;;;4384684;32;317720;-81
2023/08/11 03:32:49;;;;;;;5.30;2.22;;;;;;;;;;4374836;32;349469;-81
2023/08/11 03:35:17;;;;;;;2.90;2.15;;;;;;;;;;4384613;32;317960;-81
2023/08/11 03:37:44;;;;;;;4.32;2.78;;;;;;;;;;4375053;32;317422;-82
2023/08/11 03:40:13;;;;;;;3.95;2.25;;;;;;;;;;4385199;32;317235;-81
2023/08/11 03:42:49;;;;;;;5.93;2.53;;;;;;;;;;4371552;32;316751;-81
2023/08/11 03:45:16;;;;;;;6.50;2.83;;;;;;;;;;4372495;32;416578;-81
2023/08/11 03:47:43;;;;;;;3.53;2.25;;;;;;;;;;4385284;32;317410;-81
2023/08/11 03:50:11;;;;;;;4.90;2.55;;;;;;;;;;4372643;32;416543;-81
2023/08/11 03:52:38;;;;;;;5.72;2.50;;;;;;;;;;4385033;32;317693;-80
2023/08/11 03:55:09;;;;;;;4.55;2.67;;;;;;;;;;4374551;32;316631;-80
2023/08/11 03:57:36;;;;;;;6.60;2.70;;;;;;;;;;4399407;32;317375;-80
2023/08/11 04:00:09;;;;;;;11.48;5.22;;;;;;;;;;4390155;32;316634;-81
2023/08/11 04:02:35;;;;;;;14.60;5.93;;;;;;;;;;4398756;32;318219;-81
2023/08/11 04:05:02;;;;;;;10.82;4.87;;;;;;;;;;4389770;32;341768;-81
2023/08/11 04:07:29;;;;;;;2.85;2.03;;;;;;;;;;4386254;32;317993;-81
2023/08/11 04:09:56;;;;;;;6.10;2.37;;;;;;;;;;4390430;32;317309;-81
2023/08/11 04:12:25;;;;;;;6.75;2.12;;;;;;;;;;4379872;32;317212;-81
2023/08/11 04:14:51;;;;;;;7.75;2.33;;;;;;;;;;4386630;32;317194;-81
2023/08/11 04:17:20;;;;;;;6.87;2.47;;;;;;;;;;4399943;32;317227;-81
2023/08/11 04:19:48;;;;;;;3.67;2.12;;;;;;;;;;4387791;32;330861;-80
2023/08/11 04:22:15;;;;;;;4.53;2.75;;;;;;;;;;4399450;32;317272;-81
2023/08/11 04:24:43;;;;;;;6.50;2.10;;;;;;;;;;4399645;32;317468;-81
2023/08/11 04:27:10;;;;;;;5.68;2.12;;;;;;;;;;4386796;32;416604;-81
2023/08/11 04:29:37;;;;;;;4.10;2.05;;;;;;;;;;4390646;32;316717;-81
2023/08/11 04:32:05;;;;;;;3.10;2.25;;;;;;;;;;4373562;32;317758;-81
2023/08/11 04:34:33;;;;;;;5.35;1.62;;;;;;;;;;4383526;32;317175;-80
2023/08/11 04:37:01;;;;;;;3.80;2.08;;;;;;;;;;4374116;32;317295;-81
2023/08/11 04:39:28;;;;;;;9.00;2.05;;;;;;;;;;4384082;32;316664;-81
2023/08/11 04:41:55;;;;;;;3.37;1.98;;;;;;;;;;4373505;32;356238;-81
2023/08/11 04:44:21;;;;;;;2.15;1.75;;;;;;;;;;4383969;32;339004;-81
2023/08/11 04:46:48;;;;;;;5.60;2.08;;;;;;;;;;4372744;32;367328;-81
2023/08/11 04:49:15;;;;;;;12.93;1.70;;;;;;;;;;4384742;32;317273;-80
2023/08/11 04:51:43;;;;;;;6.07;2.45;;;;;;;;;;4383647;32;317875;-80
2023/08/11 04:54:11;;;;;;;10.98;2.87;;;;;;;;;;4354773;32;416235;-81
2023/08/11 04:56:38;;;;;;;5.32;1.87;;;;;;;;;;4361379;32;317835;-80
2023/08/11 04:59:05;;;;;;;3.40;2.08;;;;;;;;;;4344645;32;317645;-80
2023/08/11 05:01:32;;;;;;;3.92;1.83;;;;;;;;;;4368503;32;317723;-81
2023/08/11 05:03:59;;;;;;;5.47;2.05;;;;;;;;;;4358158;32;317442;-82
2023/08/11 05:06:25;;;;;;;5.20;1.87;;;;;;;;;;4354834;32;317487;-81
2023/08/11 05:08:53;;;;;;;4.62;2.35;;;;;;;;;;4359106;32;317357;-81
2023/08/11 05:11:20;;;;;;;4.43;2.08;;;;;;;;;;4368960;32;317300;-80
2023/08/11 05:13:47;;;;;;;7.22;1.98;;;;;;;;;;4352024;32;318140;-81
2023/08/11 05:16:14;;;;;;;3.62;1.80;;;;;;;;;;4367936;32;317547;-80
2023/08/11 05:18:41;;;;;;;2.80;2.15;;;;;;;;;;4368190;32;317324;-81
2023/08/11 05:21:07;;;;;;;4.45;2.05;;;;;;;;;;4350885;32;335183;-81
2023/08/11 05:23:34;;;;;;;3.22;2.15;;;;;;;;;;4368214;32;316947;-81
2023/08/11 05:26:02;;;;;;;4.97;2.25;;;;;;;;;;4367781;32;317485;-81
2023/08/11 05:28:29;;;;;;;4.45;2.20;;;;;;;;;;4383966;32;317430;-81
2023/08/11 05:30:56;;;;;;;4.82;1.80;;;;;;;;;;4371841;32;350178;-81
2023/08/11 05:33:24;;;;;;;2.95;2.37;;;;;;;;;;4382377;32;317453;-81
2023/08/11 05:35:51;;;;;;;3.45;2.35;;;;;;;;;;4374043;32;316721;-81
2023/08/11 05:38:21;;;;;;;5.87;2.25;;;;;;;;;;4383642;32;317791;-81
2023/08/11 05:40:48;;;;;;;4.12;2.20;;;;;;;;;;4371335;32;317204;-81
2023/08/11 05:43:16;;;;;;;2.78;1.65;;;;;;;;;;4382607;32;316716;-81
2023/08/11 05:45:43;;;;;;;3.28;1.80;;;;;;;;;;4383712;32;317530;-81
2023/08/11 05:48:10;;;;;;;3.58;1.90;;;;;;;;;;4367907;32;416310;-80
2023/08/11 05:50:39;;;;;;;1.87;1.58;;;;;;;;;;4367429;32;317658;-81
2023/08/11 05:53:05;;;;;;;4.15;1.73;;;;;;;;;;4358561;32;317443;-80
2023/08/11 05:55:32;;;;;;;2.12;1.80;;;;;;;;;;4366683;32;317305;-80
2023/08/11 05:57:59;;;;;;;2.35;1.60;;;;;;;;;;4357498;32;317255;-81
2023/08/11 06:00:27;;;;;;;2.65;1.85;;;;;;;;;;4368330;32;319636;-81
2023/08/11 06:02:54;;;;;;;2.58;1.65;;;;;;;;;;4356422;32;317313;-81
2023/08/11 06:05:21;;;;;;;9.68;2.42;;;;;;;;;;4368328;32;317251;-81
2023/08/11 06:07:48;;;;;;;2.30;2.10;;;;;;;;;;4359476;32;316667;-81
2023/08/11 06:10:17;;;;;;;2.78;2.03;;;;;;;;;;4380816;32;316144;-81
2023/08/11 06:12:44;;;;;;;4.65;1.75;;;;;;;;;;4371432;32;317546;-83
2023/08/11 06:15:11;;;;;;;5.45;3.00;;;;;;;;;;4380821;32;316523;-82
2023/08/11 06:17:39;;;;;;;6.15;2.45;;;;;;;;;;4385588;32;315755;-82
2023/08/11 06:20:10;;;;;;;9.95;2.58;;;;;;;;;;4375720;32;315560;-81
2023/08/11 06:22:37;;;;;;;5.47;2.87;;;;;;;;;;4385060;32;317258;-80
2023/08/11 06:25:05;;;;;;;7.75;2.60;;;;;;;;;;4363967;32;317917;-80
2023/08/11 06:27:32;;;;;;;4.65;2.50;;;;;;;;;;4368003;32;316710;-80
2023/08/11 06:29:59;;;;;;;6.15;3.50;;;;;;;;;;4358304;32;317747;-80
2023/08/11 06:32:26;;;;;;;7.87;2.67;;;;;;;;;;4367768;32;317418;-80
2023/08/11 06:34:54;;;;;;;5.07;2.65;;;;;;;;;;4357188;32;317153;-81
2023/08/11 06:37:21;;;;;;;3.72;3.05;;;;;;;;;;4366761;32;317473;-80
2023/08/11 06:39:48;;;;;;;4.12;2.47;;;;;;;;;;4357003;32;317086;-80
2023/08/11 06:42:15;;;;;;;7.50;2.87;;;;;;;;;;4366843;32;317506;-80
2023/08/11 06:44:42;;;;;;;6.00;2.78;;;;;;;;;;4366914;32;316769;-81
2023/08/11 06:47:09;;;;;;;3.37;2.17;;;;;;;;;;4351538;32;417429;-81
2023/08/11 06:49:35;;;;;;;5.68;2.20;;;;;;;;;;4370761;32;316805;-81
2023/08/11 06:52:05;;;;;;;3.60;2.20;;;;;;;;;;4373094;32;317232;-81
2023/08/11 06:54:33;;;;;;;2.50;1.67;;;;;;;;;;4381902;32;317523;-80
2023/08/11 06:57:03;;;;;;;2.10;2.00;;;;;;;;;;4372825;32;317320;-81
2023/08/11 06:59:30;;;;;;;3.12;1.60;;;;;;;;;;4368658;32;317566;-81
2023/08/11 07:01:56;;;;;;;4.70;2.20;;;;;;;;;;4375988;32;316519;-81
2023/08/11 07:04:26;;;;;;;4.25;2.42;;;;;;;;;;4385992;32;317156;-81
2023/08/11 07:06:54;;;;;;;2.70;2.35;;;;;;;;;;4368895;32;317180;-81
2023/08/11 07:09:22;;;;;;;6.57;2.25;;;;;;;;;;4383832;32;316690;-81
2023/08/11 07:11:49;;;;;;;3.58;1.80;;;;;;;;;;4374781;32;317420;-80
2023/08/11 07:14:15;;;;;;;4.75;2.17;;;;;;;;;;4384652;32;316714;-80
2023/08/11 07:16:42;;;;;;;2.97;1.95;;;;;;;;;;4386257;32;316383;-81
2023/08/11 07:19:09;;;;;;;3.58;2.10;;;;;;;;;;4372465;32;418012;-80
2023/08/11 07:21:36;;;;;;;2.72;1.77;;;;;;;;;;4384634;32;317142;-80
2023/08/11 07:24:03;;;;;;;2.80;1.93;;;;;;;;;;4365650;32;351585;-80
2023/08/11 07:26:31;;;;;;;2.87;2.03;;;;;;;;;;4384508;32;317619;-81
2023/08/11 07:28:58;;;;;;;2.47;1.83;;;;;;;;;;4374777;32;317730;-81
2023/08/11 07:31:25;;;;;;;2.15;1.90;;;;;;;;;;4385614;32;316955;-81
2023/08/11 07:33:51;;;;;;;2.45;2.00;;;;;;;;;;4375341;32;317235;-81
2023/08/11 07:36:18;;;;;;;1.83;1.60;;;;;;;;;;4385304;32;317370;-81
2023/08/11 07:38:45;;;;;;;3.87;2.12;;;;;;;;;;4374427;32;317004;-80
2023/08/11 07:41:11;;;;;;;4.62;1.85;;;;;;;;;;4385242;32;317682;-81
2023/08/11 07:43:40;;;;;;;3.00;2.03;;;;;;;;;;4385290;32;317144;-81
2023/08/11 07:46:06;;;;;;;2.62;2.08;;;;;;;;;;4375525;32;317555;-80
2023/08/11 07:48:33;;;;;;;6.53;1.95;;;;;;;;;;4385355;32;316501;-81
2023/08/11 07:51:01;;;;;;;2.95;2.03;;;;;;;;;;4374599;32;316987;-81
2023/08/11 07:53:27;;;;;;;2.83;2.15;;;;;;;;;;4385630;32;317836;-81
2023/08/11 07:55:54;;;;;;;4.37;2.17;;;;;;;;;;4367615;32;317365;-80
2023/08/11 07:58:21;;;;;;;4.15;2.33;;;;;;;;;;4384319;32;316462;-81
2023/08/11 08:00:50;;;;;;;2.42;2.08;;;;;;;;;;4374317;32;316958;-81
2023/08/11 08:03:16;;;;;;;5.12;1.52;;;;;;;;;;4385026;32;317088;-81
2023/08/11 08:05:43;;;;;;;7.22;2.03;;;;;;;;;;4385088;32;316919;-81
2023/08/11 08:08:10;;;;;;;2.70;1.80;;;;;;;;;;4371162;32;418009;-81
2023/08/11 08:10:37;;;;;;;5.60;1.95;;;;;;;;;;4382584;32;348034;-81
2023/08/11 08:13:04;;;;;;;2.10;1.90;;;;;;;;;;4375142;32;317469;-81
2023/08/11 08:15:31;;;;;;;2.72;1.90;;;;;;;;;;4378263;32;317259;-81
2023/08/11 08:17:59;;;;;;;3.30;1.98;;;;;;;;;;4374417;32;317618;-80
2023/08/11 08:20:28;;;;;;;4.05;2.03;;;;;;;;;;4383213;32;332685;-82
2023/08/11 08:22:55;;;;;;;4.37;2.17;;;;;;;;;;4373763;32;338086;-83
2023/08/11 08:25:22;;;;;;;2.12;1.85;;;;;;;;;;4383923;32;317689;-82
2023/08/11 08:27:49;;;;;;;5.50;1.65;;;;;;;;;;4361048;32;324051;-80
2023/08/11 08:30:15;;;;;;;2.72;1.77;;;;;;;;;;4380802;32;316467;-80
2023/08/11 08:32:43;;;;;;;4.32;1.67;;;;;;;;;;4384289;32;317216;-81
2023/08/11 08:35:11;;;;;;;1.87;1.52;;;;;;;;;;4369691;32;417555;-81
2023/08/11 08:37:38;;;;;;;3.58;2.55;;;;;;;;;;4382943;32;316439;-80
2023/08/11 08:40:08;;;;;;;2.12;1.75;;;;;;;;;;4372724;32;353166;-80
2023/08/11 08:42:35;;;;;;;4.28;1.70;;;;;;;;;;4384633;32;317195;-80
2023/08/11 08:45:03;;;;;;;6.07;1.60;;;;;;;;;;4373645;32;317264;-80
2023/08/11 08:47:32;;;;;;;6.32;1.83;;;;;;;;;;4383387;32;317538;-80
2023/08/11 08:50:00;;;;;;;2.10;1.48;;;;;;;;;;4373222;32;327044;-83
2023/08/11 08:52:29;;;;;;;2.75;1.80;;;;;;;;;;4370852;32;317383;-81
2023/08/11 08:54:56;;;;;;;3.97;1.90;;;;;;;;;;4373196;32;316433;-81
2023/08/11 08:57:26;;;;;;;2.92;2.03;;;;;;;;;;4384514;32;316387;-81
2023/08/11 08:59:52;;;;;;;2.30;1.90;;;;;;;;;;4374709;32;317618;-81
2023/08/11 09:02:20;;;;;;;2.37;1.40;;;;;;;;;;4383925;32;316537;-81
2023/08/11 09:04:48;;;;;;;4.55;1.52;;;;;;;;;;4359565;32;317361;-81
2023/08/11 09:07:17;;;;;;;4.72;2.00;;;;;;;;;;4380734;32;316481;-81
2023/08/11 09:09:45;;;;;;;4.82;2.20;;;;;;;;;;4380982;32;354292;-80
2023/08/11 09:12:12;;;;;;;2.97;1.80;;;;;;;;;;4361711;32;416778;-80
2023/08/11 09:14:38;;;;;;;9.95;1.80;;;;;;;;;;4384130;32;317314;-80
2023/08/11 09:17:06;;;;;;;2.95;1.77;;;;;;;;;;4373550;32;317076;-80
2023/08/11 09:19:33;;;;;;;6.03;1.42;;;;;;;;;;4382783;32;326577;-81
2023/08/11 09:22:00;;;;;;;2.58;1.98;;;;;;;;;;4372924;32;317794;-80
2023/08/11 09:24:30;;;;;;;2.53;1.55;;;;;;;;;;4384051;32;317347;-81
2023/08/11 09:26:59;;;;;;;5.55;2.00;;;;;;;;;;4370919;32;317147;-80
2023/08/11 09:29:26;;;;;;;6.50;1.65;;;;;;;;;;4387156;32;354208;-80
2023/08/11 09:31:55;;;;;;;1.25;1.15;;;;;;;;;;4373818;32;317248;-80
2023/08/11 09:34:22;;;;;;;2.28;1.73;;;;;;;;;;4357305;32;317197;-81
2023/08/11 09:36:49;;;;;;;2.95;1.60;;;;;;;;;;4348253;32;317189;-81
2023/08/11 09:39:17;;;;;;;1.90;1.70;;;;;;;;;;4353709;32;316574;-81
2023/08/11 09:41:45;;;;;;;1.90;1.55;;;;;;;;;;4353953;32;317215;-81
2023/08/11 09:44:16;;;;;;;2.33;1.20;;;;;;;;;;4344835;32;416257;-81
2023/08/11 09:46:42;;;;;;;2.72;1.42;;;;;;;;;;4353443;32;316396;-80
2023/08/11 09:49:10;;;;;;;1.62;1.40;;;;;;;;;;4343586;32;418035;-81
2023/08/11 09:51:38;;;;;;;2.87;1.83;;;;;;;;;;4367502;32;349256;-81
2023/08/11 09:54:07;;;;;;;4.10;2.50;;;;;;;;;;4353585;32;317410;-81
2023/08/11 09:56:36;;;;;;;1.87;1.33;;;;;;;;;;4383677;32;317034;-81
2023/08/11 09:59:05;;;;;;;3.97;1.50;;;;;;;;;;4373798;32;317313;-81
2023/08/11 10:01:35;;;;;;;2.58;1.85;;;;;;;;;;4383088;32;316963;-81
2023/08/11 10:04:10;;;;;;;1.95;1.50;;;;;;;;;;4373562;32;317242;-81
2023/08/11 10:06:41;;;;;;;3.20;1.87;;;;;;;;;;4382177;32;329133;-80
2023/08/11 10:09:11;;;;;;;2.87;1.70;;;;;;;;;;4373846;32;317347;-81
2023/08/11 10:11:38;;;;;;;1.80;1.40;;;;;;;;;;4378102;32;317234;-80
2023/08/11 10:14:06;;;;;;;2.45;1.42;;;;;;;;;;4379801;32;316641;-81
2023/08/11 10:16:35;;;;;;;3.30;1.65;;;;;;;;;;4383198;32;317424;-81
2023/08/11 10:19:03;;;;;;;3.55;1.62;;;;;;;;;;4372531;32;317219;-81
2023/08/11 10:21:30;;;;;;;2.92;1.65;;;;;;;;;;4381091;32;343933;-81
2023/08/11 10:23:58;;;;;;;7.85;2.40;;;;;;;;;;4373448;32;317254;-81
2023/08/11 10:26:25;;;;;;;2.45;1.90;;;;;;;;;;4383559;32;317600;-81
2023/08/11 10:28:52;;;;;;;2.50;1.30;;;;;;;;;;4373292;32;317054;-81
2023/08/11 10:31:22;;;;;;;5.50;1.55;;;;;;;;;;4382049;32;316418;-81
2023/08/11 10:33:52;;;;;;;2.95;1.42;;;;;;;;;;4372785;32;316699;-81
2023/08/11 10:36:23;;;;;;;1.62;1.40;;;;;;;;;;4382702;32;317365;-81
2023/08/11 10:39:01;;;;;;;7.50;1.73;;;;;;;;;;4372288;32;316468;-81
2023/08/11 10:41:29;;;;;;;1.67;1.52;;;;;;;;;;4381444;32;334008;-81
2023/08/11 10:43:57;;;;;;;4.62;1.52;;;;;;;;;;4372898;32;317325;-81
2023/08/11 10:46:26;;;;;;;2.42;1.33;;;;;;;;;;4382678;32;316479;-81
2023/08/11 10:48:57;;;;;;;2.17;1.85;;;;;;;;;;4372763;32;317314;-81
2023/08/11 10:51:29;;;;;;;3.53;1.73;;;;;;;;;;4382867;32;317146;-81
2023/08/11 10:53:58;;;;;;;3.22;1.60;;;;;;;;;;4372145;32;317624;-81
2023/08/11 10:56:34;;;;;;;2.28;1.70;;;;;;;;;;4344549;32;316727;-81
2023/08/11 10:59:06;;;;;;;2.53;1.65;;;;;;;;;;4358090;32;317408;-81
2023/08/11 11:01:35;;;;;;;3.70;1.58;;;;;;;;;;4370307;32;316547;-81
2023/08/11 11:04:03;;;;;;;5.90;4.28;;;;;;;;;;4382727;32;317248;-81
2023/08/11 11:06:31;;;;;;;7.50;5.87;;;;;;;;;;4390467;32;317391;-81
2023/08/11 11:08:57;;;;;;;5.65;3.35;;;;;;;;;;4386066;32;316519;-81
2023/08/11 11:11:25;;;;;;;2.47;2.00;;;;;;;;;;4398953;32;315762;-81
2023/08/11 11:13:52;;;;;;;3.22;1.48;;;;;;;;;;4382972;32;316301;-80
2023/08/11 11:16:20;;;;;;;2.05;1.70;;;;;;;;;;4383561;32;317048;-80
2023/08/11 11:18:49;;;;;;;2.28;1.83;;;;;;;;;;4372102;32;317100;-80
2023/08/11 11:21:18;;;;;;;4.28;1.80;;;;;;;;;;4383074;32;317313;-80
2023/08/11 11:23:46;;;;;;;1.52;1.40;;;;;;;;;;4372110;32;317165;-81
2023/08/11 11:26:15;;;;;;;7.07;1.42;;;;;;;;;;4383263;32;316581;-81
2023/08/11 11:28:42;;;;;;;2.37;1.40;;;;;;;;;;4381806;32;317439;-81
2023/08/11 11:31:09;;;;;;;3.60;1.70;;;;;;;;;;4373306;32;317384;-80
2023/08/11 11:33:36;;;;;;;2.37;1.20;;;;;;;;;;4382673;32;317120;-80
2023/08/11 11:36:03;;;;;;;2.10;1.20;;;;;;;;;;4371628;32;355265;-80
2023/08/11 11:38:31;;;;;;;1.50;1.40;;;;;;;;;;4383058;32;317354;-80
2023/08/11 11:40:58;;;;;;;2.50;1.52;;;;;;;;;;4371888;32;317188;-81
2023/08/11 11:43:25;;;;;;;1.80;1.20;;;;;;;;;;4381778;32;317235;-80
2023/08/11 11:45:53;;;;;;;2.25;1.42;;;;;;;;;;4372532;32;317136;-80
2023/08/11 11:48:21;;;;;;;8.88;1.87;;;;;;;;;;4385687;32;317221;-80
2023/08/11 11:50:48;;;;;;;1.75;1.35;;;;;;;;;;4375679;32;317615;-80
2023/08/11 11:53:15;;;;;;;1.77;1.58;;;;;;;;;;4385613;32;317316;-80
2023/08/11 11:55:47;;;;;;;2.53;1.10;;;;;;;;;;4385678;32;317492;-81
2023/08/11 11:58:15;;;;;;;3.55;1.40;;;;;;;;;;4372412;32;416605;-81
2023/08/11 12:00:41;;;;;;;1.85;1.52;;;;;;;;;;4385609;32;316480;-80
2023/08/11 12:03:09;;;;;;;2.10;1.27;;;;;;;;;;4374382;32;317578;-81
2023/08/11 12:05:37;;;;;;;2.08;1.50;;;;;;;;;;4384833;32;317388;-80
2023/08/11 12:08:18;;;;;;;1.90;1.05;;;;;;;;;;4374931;32;317173;-80
2023/08/11 12:10:48;;;;;;;1.50;1.10;;;;;;;;;;4374310;32;317203;-80
2023/08/11 12:13:15;;;;;;;1.52;1.30;;;;;;;;;;4385101;32;317064;-80
2023/08/11 12:15:41;;;;;;;3.65;1.10;;;;;;;;;;4384805;32;317416;-81
2023/08/11 12:18:08;;;;;;;5.80;1.50;;;;;;;;;;4373994;32;317718;-79
2023/08/11 12:20:37;;;;;;;3.40;1.40;;;;;;;;;;4383842;32;317478;-82
2023/08/11 12:23:04;;;;;;;1.83;1.40;;;;;;;;;;4374931;32;317613;-81
2023/08/11 12:25:31;;;;;;;2.45;1.35;;;;;;;;;;4385237;32;317350;-80
2023/08/11 12:28:01;;;;;;;3.72;1.20;;;;;;;;;;4374632;32;317347;-80
2023/08/11 12:30:28;;;;;;;1.40;1.17;;;;;;;;;;4385043;32;317292;-81
2023/08/11 12:32:55;;;;;;;2.33;1.10;;;;;;;;;;4374819;32;317577;-81
2023/08/11 12:35:22;;;;;;;2.40;1.37;;;;;;;;;;4384618;32;317657;-80
2023/08/11 12:37:49;;;;;;;2.12;1.10;;;;;;;;;;4373825;32;317094;-80
2023/08/11 12:40:18;;;;;;;2.53;1.45;;;;;;;;;;4385071;32;317079;-81
2023/08/11 12:42:45;;;;;;;10.18;1.65;;;;;;;;;;4374645;32;317280;-81
2023/08/11 12:45:13;;;;;;;3.45;1.80;;;;;;;;;;4384439;32;317623;-80
2023/08/11 12:47:39;;;;;;;1.87;1.33;;;;;;;;;;4384433;32;316464;-80
2023/08/11 12:50:08;;;;;;;1.37;1.25;;;;;;;;;;4373129;32;317020;-80
2023/08/11 12:52:35;;;;;;;5.78;1.20;;;;;;;;;;4382339;32;318458;-80
2023/08/11 12:55:03;;;;;;;2.70;1.50;;;;;;;;;;4371531;32;317419;-81
2023/08/11 12:57:29;;;;;;;1.92;1.40;;;;;;;;;;4383829;32;317343;-82
2023/08/11 12:59:56;;;;;;;3.10;1.67;;;;;;;;;;4373569;32;317217;-80
2023/08/11 13:02:25;;;;;;;1.60;1.33;;;;;;;;;;4382962;32;317748;-80
2023/08/11 13:04:51;;;;;;;2.37;1.20;;;;;;;;;;4373480;32;317113;-80
2023/08/11 13:07:18;;;;;;;1.55;1.02;;;;;;;;;;4383018;32;317115;-80
2023/08/11 13:09:45;;;;;;;2.78;1.42;;;;;;;;;;4371660;32;345410;-80
2023/08/11 13:12:13;;;;;;;1.65;1.15;;;;;;;;;;4383958;32;317251;-81
2023/08/11 13:14:40;;;;;;;1.10;1.00;;;;;;;;;;4383619;32;317330;-82
2023/08/11 13:17:06;;;;;;;3.53;1.48;;;;;;;;;;4374258;32;317556;-80
2023/08/11 13:19:35;;;;;;;1.73;1.35;;;;;;;;;;4382381;32;317432;-80
2023/08/11 13:22:05;;;;;;;1.20;1.05;;;;;;;;;;4374394;32;317372;-80
2023/08/11 13:24:34;;;;;;;3.15;1.12;;;;;;;;;;4370370;32;317881;-81
2023/08/11 13:27:05;;;;;;;2.65;1.10;;;;;;;;;;4374380;32;316647;-80
2023/08/11 13:29:32;;;;;;;3.08;1.40;;;;;;;;;;4382692;32;317205;-81
2023/08/11 13:31:59;;;;;;;3.03;1.52;;;;;;;;;;4374026;32;317134;-80
2023/08/11 13:34:26;;;;;;;4.18;1.85;;;;;;;;;;4382383;32;317153;-80
2023/08/11 13:36:54;;;;;;;3.55;1.50;;;;;;;;;;4373971;32;317367;-80
2023/08/11 13:39:23;;;;;;;2.05;1.40;;;;;;;;;;4383519;32;316365;-81
2023/08/11 13:41:50;;;;;;;2.10;1.50;;;;;;;;;;4372613;32;316608;-80
2023/08/11 13:44:17;;;;;;;2.37;1.40;;;;;;;;;;4383679;32;316597;-79
2023/08/11 13:46:43;;;;;;;1.58;1.27;;;;;;;;;;4383765;32;317453;-79
2023/08/11 13:49:11;;;;;;;5.60;1.77;;;;;;;;;;4367766;32;416231;-79
2023/08/11 13:51:40;;;;;;;2.15;1.60;;;;;;;;;;4368168;32;316553;-79
2023/08/11 13:54:08;;;;;;;1.98;1.77;;;;;;;;;;4373311;32;317236;-79
2023/08/11 13:56:34;;;;;;;2.15;1.48;;;;;;;;;;4372218;32;316750;-80
2023/08/11 13:59:02;;;;;;;2.70;1.70;;;;;;;;;;4357721;32;317573;-80
2023/08/11 14:01:29;;;;;;;1.42;1.25;;;;;;;;;;4367923;32;317341;-80
2023/08/11 14:03:56;;;;;;;8.90;1.80;;;;;;;;;;4358226;32;317234;-79
2023/08/11 14:06:22;;;;;;;3.60;2.00;;;;;;;;;;4376587;32;316603;-79
2023/08/11 14:08:49;;;;;;;1.70;1.50;;;;;;;;;;4372116;32;317495;-79
2023/08/11 14:11:23;;;;;;;3.87;2.10;;;;;;;;;;4382823;32;328343;-79
2023/08/11 14:13:50;;;;;;;2.35;1.62;;;;;;;;;;4373791;32;316925;-80
2023/08/11 14:16:17;;;;;;;3.62;2.00;;;;;;;;;;4383446;32;317391;-80
2023/08/11 14:18:44;;;;;;;2.65;1.67;;;;;;;;;;4382297;32;317336;-79
2023/08/11 14:21:11;;;;;;;3.53;2.60;;;;;;;;;;4370278;32;417807;-80
2023/08/11 14:23:38;;;;;;;2.90;1.98;;;;;;;;;;4383315;32;317195;-80
2023/08/11 14:26:06;;;;;;;3.58;2.10;;;;;;;;;;4372587;32;317227;-80
2023/08/11 14:28:34;;;;;;;3.28;2.00;;;;;;;;;;4382004;32;317391;-80
2023/08/11 14:31:00;;;;;;;2.17;1.70;;;;;;;;;;4373229;32;317950;-79